Nassau/Lynden Pindling International Airport


MYNN 051915Z 35005KT 260V070 9999 -SHRA SCT020CB BKN200 29/25 A3004 RETS


TAF MYNN 051045Z 0512/0612 20005G15KT 7000 TSRA FEW015CB SCT018 BKN035 FM060000 12005KT 9999 VCSH SCT016CB BKN018 BKN035

 

Freeport/Grand Bahama International Airport


MYGF 051900Z 22009KT 9999 VCSH FEW018CB BKN220 32/26 A3001


TAF MYGF 051045Z 0512/0612 27005G15KT 8000 SHRA SCT015CB BKN018

 

Providenciales International Airport


MBPV 051700Z 13005KT 9999 SCT012 32/24 Q1016


TAF MBPV 051045Z 0512/0612 11012KT 9999 VCSH SCT018 SCT030

Close Menu